createdAt,value
2022-08-17T00:01:52.777Z,64.11
2022-08-17T00:06:57.775Z,68.34
2022-08-17T00:12:41.471Z,77.66
2022-08-17T00:17:30.939Z,79.78
2022-08-17T00:22:36.647Z,78.99
2022-08-17T00:27:42.542Z,77.89
2022-08-17T00:33:12.397Z,76.91
2022-08-17T00:38:14.413Z,76.35
2022-08-17T00:43:27.407Z,76.69
2022-08-17T00:48:33.027Z,79.11
2022-08-17T00:53:52.511Z,79.88
2022-08-17T00:58:59.298Z,79.42
2022-08-17T01:04:05.237Z,79.41
2022-08-17T01:09:09.874Z,100.00
2022-08-17T01:14:15.515Z,100.00
2022-08-17T01:19:26.305Z,100.00
2022-08-17T01:24:34.162Z,100.00
2022-08-17T01:29:42.058Z,100.00
2022-08-17T01:34:50.337Z,100.00
2022-08-17T01:40:05.718Z,100.00
2022-08-17T01:45:17.782Z,100.00
2022-08-17T01:50:27.691Z,100.00
2022-08-17T01:55:42.058Z,100.00
2022-08-17T02:01:00.864Z,100.00
2022-08-17T02:06:27.042Z,100.00
2022-08-17T02:11:37.769Z,100.00
2022-08-17T02:16:43.664Z,100.00
2022-08-17T02:21:52.916Z,100.00
2022-08-17T02:26:58.663Z,99.66
2022-08-17T02:32:03.131Z,100.00
2022-08-17T02:37:08.558Z,100.00
2022-08-17T02:42:16.096Z,100.00
2022-08-17T02:47:20.510Z,100.00
2022-08-17T02:52:42.828Z,100.00
2022-08-17T02:57:50.437Z,100.00
2022-08-17T03:02:55.025Z,100.00
2022-08-17T03:08:00.009Z,100.00
2022-08-17T03:13:06.080Z,100.00
2022-08-17T03:18:14.411Z,100.00
2022-08-17T03:23:30.297Z,100.00
2022-08-17T03:28:36.353Z,100.00
2022-08-17T03:33:40.658Z,100.00
2022-08-17T03:38:45.092Z,100.00
2022-08-17T03:43:50.836Z,100.00
2022-08-17T03:49:12.877Z,100.00
2022-08-17T03:54:34.646Z,100.00
2022-08-17T03:59:41.305Z,100.00
2022-08-17T04:04:45.834Z,100.00
2022-08-17T04:09:50.934Z,100.00
2022-08-17T04:14:56.730Z,100.00
2022-08-17T04:20:01.175Z,100.00
2022-08-17T04:25:10.796Z,100.00
2022-08-17T04:30:17.048Z,100.00
2022-08-17T04:35:24.281Z,100.00
2022-08-17T04:40:47.706Z,100.00
2022-08-17T04:45:58.228Z,100.00
2022-08-17T04:51:03.623Z,100.00
2022-08-17T04:56:16.164Z,100.00
2022-08-17T05:01:25.990Z,100.00
2022-08-17T05:06:31.358Z,100.00
2022-08-17T05:11:37.721Z,100.00
2022-08-17T05:16:45.640Z,100.00
2022-08-17T05:21:51.328Z,100.00
2022-08-17T05:26:55.646Z,100.00
2022-08-17T05:32:39.571Z,100.00
2022-08-17T05:37:34.982Z,100.00
2022-08-17T05:42:39.626Z,100.00
2022-08-17T05:47:48.525Z,100.00
2022-08-17T05:53:05.151Z,100.00
2022-08-17T05:58:24.036Z,100.00
2022-08-17T06:03:49.107Z,100.00
2022-08-17T06:09:06.653Z,100.00
2022-08-17T06:14:43.187Z,100.00
2022-08-17T06:19:55.909Z,100.00
2022-08-17T06:25:10.000Z,100.00
2022-08-17T06:30:21.112Z,100.00
2022-08-17T06:35:38.861Z,100.00
2022-08-17T06:41:03.699Z,99.04
2022-08-17T06:46:14.593Z,97.60
2022-08-17T06:51:31.790Z,94.63
2022-08-17T06:56:54.566Z,89.62
2022-08-17T07:02:08.328Z,85.01
2022-08-17T07:07:38.293Z,76.67
2022-08-17T07:12:47.018Z,71.93
2022-08-17T07:17:52.438Z,72.06
2022-08-17T07:23:14.766Z,71.96
2022-08-17T07:28:24.603Z,69.11
2022-08-17T07:33:33.290Z,58.75
2022-08-17T07:38:58.642Z,53.86
2022-08-17T07:44:03.139Z,55.97
2022-08-17T07:49:33.653Z,58.86
2022-08-17T07:54:42.811Z,58.52
2022-08-17T08:00:23.906Z,52.08
2022-08-17T08:05:55.280Z,50.26
2022-08-17T08:11:09.131Z,46.75
2022-08-17T08:16:27.603Z,45.84
2022-08-17T08:21:59.195Z,46.40
2022-08-17T08:27:25.318Z,44.38
2022-08-17T08:32:54.013Z,42.96
2022-08-17T08:38:16.546Z,47.04
2022-08-17T08:43:37.433Z,50.93
2022-08-17T08:49:14.472Z,58.81
2022-08-17T08:54:36.611Z,65.50
2022-08-17T08:59:57.916Z,76.50
2022-08-17T09:05:16.619Z,100.00
2022-08-17T09:10:30.642Z,100.00
2022-08-17T09:15:46.183Z,100.00
2022-08-17T09:21:00.001Z,100.00
2022-08-17T09:26:22.980Z,100.00
2022-08-17T09:31:48.842Z,100.00
2022-08-17T09:37:08.805Z,100.00
2022-08-17T09:42:45.370Z,100.00
2022-08-17T09:48:02.019Z,100.00
2022-08-17T09:53:06.798Z,100.00
2022-08-17T09:58:29.215Z,100.00
2022-08-17T10:04:06.556Z,100.00
2022-08-17T10:09:52.133Z,100.00
2022-08-17T10:15:26.411Z,95.94
2022-08-17T10:20:49.066Z,77.05
2022-08-17T10:26:46.192Z,63.45
2022-08-17T10:32:12.574Z,42.42
2022-08-17T10:38:11.489Z,35.17
2022-08-17T10:44:35.408Z,35.24
2022-08-17T10:57:41.316Z,34.01
2022-08-17T11:03:05.010Z,32.95
2022-08-17T11:09:15.501Z,28.27
2022-08-17T11:14:44.013Z,29.54
2022-08-17T11:20:20.123Z,26.11
2022-08-17T11:25:38.477Z,21.70
2022-08-17T11:30:51.912Z,21.60
2022-08-17T11:36:13.795Z,21.08
2022-08-17T11:41:30.359Z,20.20
2022-08-17T11:47:17.534Z,19.37
2022-08-17T11:52:46.002Z,19.95
2022-08-17T11:58:01.670Z,21.83
2022-08-17T12:03:55.315Z,21.30
2022-08-17T12:09:16.970Z,20.88
2022-08-17T12:14:45.367Z,19.76
2022-08-17T12:19:53.380Z,18.64
2022-08-17T12:25:13.436Z,19.05
2022-08-17T12:30:23.071Z,19.01
2022-08-17T12:35:38.866Z,19.08
2022-08-17T12:40:55.723Z,17.66
2022-08-17T12:46:13.155Z,17.90
2022-08-17T12:51:24.349Z,16.32
2022-08-17T12:56:31.319Z,16.58
2022-08-17T13:01:38.776Z,17.06
2022-08-17T13:06:52.279Z,16.35
2022-08-17T13:12:06.158Z,15.26
2022-08-17T13:17:13.647Z,15.36
2022-08-17T13:22:25.957Z,16.81
2022-08-17T13:27:31.611Z,17.83
2022-08-17T13:32:44.053Z,18.19
2022-08-17T13:38:03.145Z,18.83
2022-08-17T13:43:07.720Z,22.77
2022-08-17T13:48:30.174Z,24.93
2022-08-17T13:54:09.698Z,27.78
2022-08-17T13:59:18.024Z,30.57
2022-08-17T14:04:45.911Z,31.67
2022-08-17T14:09:57.028Z,34.70
2022-08-17T14:15:02.258Z,38.70
2022-08-17T14:20:13.675Z,41.41
2022-08-17T14:25:23.171Z,42.33
2022-08-17T14:31:38.671Z,48.46
2022-08-17T14:37:24.959Z,92.00
2022-08-17T14:42:37.305Z,100.00
2022-08-17T14:47:43.285Z,100.00
2022-08-17T14:52:50.401Z,100.00
2022-08-17T14:57:58.680Z,100.00
2022-08-17T15:03:05.379Z,100.00
2022-08-17T15:08:09.900Z,100.00
2022-08-17T15:13:59.633Z,100.00
2022-08-17T15:19:24.367Z,100.00
2022-08-17T15:25:44.545Z,100.00
2022-08-17T15:31:18.179Z,100.00
2022-08-17T15:36:22.832Z,100.00
2022-08-17T15:41:29.343Z,100.00
2022-08-17T15:46:35.664Z,100.00
2022-08-17T15:51:41.323Z,100.00
2022-08-17T15:56:46.266Z,100.00
2022-08-17T16:03:13.177Z,100.00
2022-08-17T16:07:20.889Z,100.00
2022-08-17T16:12:28.943Z,100.00
2022-08-17T16:17:40.592Z,100.00
2022-08-17T16:22:47.215Z,100.00
2022-08-17T16:27:53.321Z,100.00
2022-08-17T16:33:03.557Z,100.00
2022-08-17T16:38:08.028Z,100.00
2022-08-17T16:43:12.495Z,100.00
2022-08-17T16:48:18.461Z,100.00
2022-08-17T16:53:22.934Z,100.00
2022-08-17T16:58:27.347Z,100.00
2022-08-17T17:03:33.820Z,100.00
2022-08-17T17:08:44.928Z,100.00
2022-08-17T17:13:57.821Z,100.00
2022-08-17T17:19:15.070Z,100.00
2022-08-17T17:24:32.634Z,100.00
2022-08-17T17:29:52.784Z,100.00
2022-08-17T17:35:09.527Z,100.00
2022-08-17T17:40:24.307Z,100.00
2022-08-17T17:45:38.700Z,100.00
2022-08-17T17:50:56.047Z,100.00
2022-08-17T17:56:18.777Z,100.00
2022-08-17T18:01:53.991Z,100.00
2022-08-17T18:07:17.540Z,100.00
2022-08-17T18:12:37.712Z,100.00
2022-08-17T18:18:13.096Z,100.00
2022-08-17T18:23:21.350Z,100.00
2022-08-17T18:28:34.683Z,100.00
2022-08-17T18:33:41.132Z,100.00
2022-08-17T18:38:47.080Z,100.00
2022-08-17T18:44:07.207Z,100.00
2022-08-17T18:49:29.883Z,100.00
2022-08-17T18:54:39.129Z,100.00
2022-08-17T18:59:48.231Z,100.00
2022-08-17T19:05:07.461Z,100.00
2022-08-17T19:10:29.376Z,100.00
2022-08-17T19:15:42.362Z,100.00
2022-08-17T19:20:57.661Z,100.00
2022-08-17T19:26:54.051Z,100.00
2022-08-17T19:31:46.663Z,100.00
2022-08-17T19:37:01.196Z,100.00
2022-08-17T19:42:17.182Z,100.00
2022-08-17T19:47:54.392Z,100.00
2022-08-17T19:53:10.854Z,100.00
2022-08-17T19:58:48.160Z,100.00
2022-08-17T20:04:04.537Z,100.00
2022-08-17T20:09:21.183Z,100.00
2022-08-17T20:14:37.549Z,100.00
2022-08-17T20:19:53.287Z,100.00
2022-08-17T20:25:12.218Z,100.00
2022-08-17T20:30:38.412Z,100.00
2022-08-17T20:36:06.215Z,100.00
2022-08-17T20:41:20.885Z,100.00
2022-08-17T20:46:57.138Z,100.00
2022-08-17T20:52:08.862Z,100.00
2022-08-17T20:57:55.321Z,100.00
2022-08-17T21:03:50.681Z,100.00
2022-08-17T21:09:20.268Z,100.00
2022-08-17T21:15:00.510Z,100.00
2022-08-17T21:20:26.445Z,100.00
2022-08-17T21:26:02.521Z,100.00
2022-08-17T21:31:10.743Z,100.00
2022-08-17T21:36:28.205Z,100.00
2022-08-17T21:41:47.613Z,100.00
2022-08-17T21:46:54.670Z,100.00
2022-08-17T21:52:02.381Z,100.00
2022-08-17T21:57:17.773Z,100.00
2022-08-17T22:02:26.371Z,100.00
2022-08-17T22:07:43.852Z,100.00
2022-08-17T22:13:05.901Z,100.00
2022-08-17T22:18:29.182Z,100.00
2022-08-17T22:23:56.166Z,100.00
2022-08-17T22:29:01.625Z,100.00
2022-08-17T22:34:15.804Z,100.00
2022-08-17T22:39:42.084Z,100.00
2022-08-17T22:44:50.556Z,100.00
2022-08-17T22:49:59.600Z,100.00
2022-08-17T22:55:35.037Z,100.00
2022-08-17T23:00:43.736Z,100.00
2022-08-17T23:06:04.353Z,100.00
2022-08-17T23:11:10.295Z,100.00
2022-08-17T23:16:14.865Z,100.00
2022-08-17T23:21:27.429Z,100.00
2022-08-17T23:26:39.167Z,100.00
2022-08-17T23:31:43.823Z,100.00
2022-08-17T23:36:53.181Z,100.00
2022-08-17T23:42:01.468Z,100.00
2022-08-17T23:47:07.776Z,100.00
2022-08-17T23:52:16.654Z,100.00
2022-08-17T23:57:33.726Z,100.00
